Time;durP1;ratioP1;P1;durP2;ratioP2;P2;SDS_P1;SDS_P2;PMS_P1;PMS_P2;Temp;Humidity;BMP_temperature;BMP_pressure;BME280_temperature;BME280_humidity;BME280_pressure;Samples;Min_cycle;Max_cycle;Signal;HPM_P1;HPM_P2
2023/06/30 00:00:42;;;;;;;;;;;17.40;99.90;;;;;;8313439;28;19915;-76
2023/06/30 00:04:42;;;;;;;;;;;17.40;99.90;;;;;;8313611;28;19910;-76
2023/06/30 00:08:43;;;;;;;;;;;17.20;99.90;;;;;;8315811;28;19996;-77
2023/06/30 00:12:43;;;;;;;;;;;17.20;99.90;;;;;;8314157;28;19917;-76
2023/06/30 00:16:44;;;;;;;;;;;17.20;99.90;;;;;;8314928;28;19975;-76
2023/06/30 00:20:45;;;;;;;;;;;17.10;99.90;;;;;;8314388;28;20393;-76
2023/06/30 00:24:46;;;;;;;;;;;17.10;99.90;;;;;;8306343;28;20039;-76
2023/06/30 00:28:47;;;;;;;;;;;17.10;99.90;;;;;;8323413;28;19960;-77
2023/06/30 00:32:47;;;;;;;;;;;17.10;99.90;;;;;;8314254;28;20305;-76
2023/06/30 00:36:48;;;;;;;;;;;17.10;99.90;;;;;;8310325;28;19971;-76
2023/06/30 00:40:48;;;;;;;;;;;17.10;99.90;;;;;;8309707;28;19992;-75
2023/06/30 00:44:49;;;;;;;;;;;17.10;99.90;;;;;;8316941;28;19921;-77
2023/06/30 00:48:49;;;;;;;;;;;17.10;99.90;;;;;;8323261;28;20389;-76
2023/06/30 00:52:50;;;;;;;;;;;17.00;99.90;;;;;;8320017;28;19916;-75
2023/06/30 00:56:51;;;;;;;;;;;17.00;99.90;;;;;;8314644;28;19910;-76
2023/06/30 01:00:54;;;;;;;;;;;17.00;99.90;;;;;;8313243;28;20519;-77
2023/06/30 01:04:55;;;;;;;;;;;17.00;99.90;;;;;;8309131;28;19948;-76
2023/06/30 01:09:03;;;;;;;;;;;16.90;99.90;;;;;;8323044;28;19928;-76
2023/06/30 01:13:04;;;;;;;;;;;16.90;99.90;;;;;;8317550;28;20348;-76
2023/06/30 01:17:05;;;;;;;;;;;16.80;99.90;;;;;;8317223;28;19915;-77
2023/06/30 01:21:07;;;;;;;;;;;16.80;99.90;;;;;;8329201;28;19921;-76
2023/06/30 01:25:13;;;;;;;;;;;16.80;99.90;;;;;;8328559;28;19913;-76
2023/06/30 01:29:13;;;;;;;;;;;16.70;99.90;;;;;;8317084;28;19917;-77
2023/06/30 01:33:14;;;;;;;;;;;16.70;99.90;;;;;;8318505;28;19916;-76
2023/06/30 01:37:15;;;;;;;;;;;16.60;99.90;;;;;;8318496;28;19921;-77
2023/06/30 01:41:15;;;;;;;;;;;16.60;99.90;;;;;;8319090;28;19913;-76
2023/06/30 01:45:16;;;;;;;;;;;16.60;99.90;;;;;;8313544;28;19913;-77
2023/06/30 01:49:17;;;;;;;;;;;16.70;99.90;;;;;;8328237;28;19967;-76
2023/06/30 01:53:17;;;;;;;;;;;16.80;99.90;;;;;;8312861;28;20388;-75
2023/06/30 01:57:18;;;;;;;;;;;16.90;99.90;;;;;;8318233;28;20469;-76
2023/06/30 02:01:18;;;;;;;;;;;16.90;99.90;;;;;;8322366;28;19913;-75
2023/06/30 02:05:18;;;;;;;;;;;16.80;99.90;;;;;;8326581;28;19921;-75
2023/06/30 02:09:19;;;;;;;;;;;16.80;99.90;;;;;;8327144;28;19972;-76
2023/06/30 02:13:19;;;;;;;;;;;17.00;99.90;;;;;;8313037;28;19948;-76
2023/06/30 02:17:27;;;;;;;;;;;16.80;99.90;;;;;;8313817;28;19909;-76
2023/06/30 02:21:27;;;;;;;;;;;16.70;99.90;;;;;;8317914;28;19913;-76
2023/06/30 02:25:28;;;;;;;;;;;17.00;99.90;;;;;;8325138;28;19924;-76
2023/06/30 02:29:28;;;;;;;;;;;16.70;99.90;;;;;;8312929;28;19910;-76
2023/06/30 02:33:28;;;;;;;;;;;17.00;99.90;;;;;;8320921;28;19913;-76
2023/06/30 02:37:29;;;;;;;;;;;16.90;99.90;;;;;;8315333;28;19924;-76
2023/06/30 02:41:29;;;;;;;;;;;17.20;99.90;;;;;;8317091;28;19916;-76
2023/06/30 02:45:30;;;;;;;;;;;17.20;99.90;;;;;;8316075;28;19909;-76
2023/06/30 02:49:30;;;;;;;;;;;17.20;99.90;;;;;;8312994;28;20367;-76
2023/06/30 02:53:31;;;;;;;;;;;17.00;99.90;;;;;;8310069;28;19909;-75
2023/06/30 02:57:31;;;;;;;;;;;17.00;99.90;;;;;;8316143;28;19909;-76
2023/06/30 03:01:32;;;;;;;;;;;17.10;99.90;;;;;;8319676;28;20378;-76
2023/06/30 03:05:35;;;;;;;;;;;16.90;99.90;;;;;;8306801;28;19909;-76
2023/06/30 03:09:36;;;;;;;;;;;16.80;99.90;;;;;;8316248;28;19909;-76
2023/06/30 03:13:36;;;;;;;;;;;16.60;99.90;;;;;;8315483;28;19924;-76
2023/06/30 03:17:36;;;;;;;;;;;16.60;99.90;;;;;;8311831;28;20384;-76
2023/06/30 03:21:37;;;;;;;;;;;16.50;99.90;;;;;;8315484;28;19917;-76
2023/06/30 03:25:37;;;;;;;;;;;16.60;99.90;;;;;;8323378;28;19918;-74
2023/06/30 03:29:38;;;;;;;;;;;16.60;99.90;;;;;;8313729;28;19921;-76
2023/06/30 03:33:38;;;;;;;;;;;16.70;99.90;;;;;;8323173;28;19978;-76
2023/06/30 03:37:39;;;;;;;;;;;16.90;99.90;;;;;;8323083;28;19925;-76
2023/06/30 03:41:39;;;;;;;;;;;16.90;99.90;;;;;;8307606;28;19920;-75
2023/06/30 03:45:40;;;;;;;;;;;16.90;99.90;;;;;;8306382;28;19913;-76
2023/06/30 03:49:40;;;;;;;;;;;16.90;99.90;;;;;;8306514;28;19964;-76
2023/06/30 03:53:41;;;;;;;;;;;17.20;99.90;;;;;;8306963;28;19913;-76
2023/06/30 03:57:41;;;;;;;;;;;17.20;99.90;;;;;;8314820;28;19944;-76
2023/06/30 04:01:42;;;;;;;;;;;17.00;99.90;;;;;;8310609;28;19913;-76
2023/06/30 04:05:42;;;;;;;;;;;16.90;99.90;;;;;;8325099;28;19917;-76
2023/06/30 04:09:43;;;;;;;;;;;16.90;99.90;;;;;;8315083;28;20062;-77
2023/06/30 04:13:43;;;;;;;;;;;17.00;99.90;;;;;;8317050;28;19913;-76
2023/06/30 04:17:44;;;;;;;;;;;17.00;99.90;;;;;;8313488;28;20400;-76
2023/06/30 04:21:44;;;;;;;;;;;17.40;99.90;;;;;;8310015;28;20590;-75
2023/06/30 04:25:45;;;;;;;;;;;17.40;99.90;;;;;;8312667;28;20476;-75
2023/06/30 04:29:46;;;;;;;;;;;17.50;99.90;;;;;;8327043;28;20368;-76
2023/06/30 04:33:46;;;;;;;;;;;17.60;99.90;;;;;;8314444;28;19913;-77
2023/06/30 04:37:47;;;;;;;;;;;17.70;99.90;;;;;;8312907;28;20018;-76
2023/06/30 04:41:47;;;;;;;;;;;17.70;99.90;;;;;;8313523;28;20537;-75
2023/06/30 04:45:48;;;;;;;;;;;17.60;99.90;;;;;;8308640;28;19949;-76
2023/06/30 04:49:48;;;;;;;;;;;17.60;99.90;;;;;;8320271;28;19921;-77
2023/06/30 04:53:49;;;;;;;;;;;17.90;99.90;;;;;;8320630;28;19913;-75
2023/06/30 04:57:49;;;;;;;;;;;18.00;99.90;;;;;;8318602;28;19917;-76
2023/06/30 05:01:49;;;;;;;;;;;18.00;99.90;;;;;;8316352;28;20504;-75
2023/06/30 05:05:50;;;;;;;;;;;17.90;99.90;;;;;;8320130;28;19917;-76
2023/06/30 05:09:50;;;;;;;;;;;17.90;99.90;;;;;;8322185;28;19964;-76
2023/06/30 05:13:51;;;;;;;;;;;17.40;99.90;;;;;;8329435;28;20498;-76
2023/06/30 05:17:51;;;;;;;;;;;17.70;99.90;;;;;;8336201;28;19913;-76
2023/06/30 05:21:52;;;;;;;;;;;17.70;99.90;;;;;;8321224;28;19917;-76
2023/06/30 05:25:53;;;;;;;;;;;17.70;99.90;;;;;;8318245;28;20004;-76
2023/06/30 05:29:53;;;;;;;;;;;17.70;99.90;;;;;;8321498;28;20298;-76
2023/06/30 05:33:54;;;;;;;;;;;17.80;99.90;;;;;;8315926;28;20492;-81
2023/06/30 05:37:55;;;;;;;;;;;17.70;99.90;;;;;;8314843;28;19960;-82
2023/06/30 05:41:56;;;;;;;;;;;17.40;99.90;;;;;;8320291;28;20047;-82
2023/06/30 05:45:57;;;;;;;;;;;17.80;99.90;;;;;;8320245;28;19956;-82
2023/06/30 05:49:57;;;;;;;;;;;17.80;99.90;;;;;;8319436;28;19920;-83
2023/06/30 05:53:58;;;;;;;;;;;17.70;99.90;;;;;;8321247;28;20316;-82
2023/06/30 05:57:58;;;;;;;;;;;17.50;99.90;;;;;;8318918;28;20275;-84
2023/06/30 06:01:59;;;;;;;;;;;16.90;99.90;;;;;;8324065;28;20017;-84
2023/06/30 06:06:12;;;;;;;;;;;17.30;99.90;;;;;;8316657;28;19960;-89
2023/06/30 06:10:12;;;;;;;;;;;17.10;99.90;;;;;;8323753;28;20007;-87
2023/06/30 06:14:13;;;;;;;;;;;17.70;99.90;;;;;;8308500;28;19913;-88
2023/06/30 06:18:13;;;;;;;;;;;16.90;99.90;;;;;;8329079;28;19921;-86
2023/06/30 06:22:14;;;;;;;;;;;17.30;99.90;;;;;;8322379;28;19913;-85
2023/06/30 06:26:14;;;;;;;;;;;17.40;99.90;;;;;;8311993;28;19971;-84
2023/06/30 06:30:17;;;;;;;;;;;17.30;99.90;;;;;;8313966;28;19917;-84
2023/06/30 06:34:18;;;;;;;;;;;17.70;99.90;;;;;;8314398;28;19917;-83
2023/06/30 06:38:19;;;;;;;;;;;17.30;99.90;;;;;;8315414;28;19924;-83
2023/06/30 06:42:19;;;;;;;;;;;17.20;99.90;;;;;;8307843;28;19924;-82
2023/06/30 06:46:20;;;;;;;;;;;17.20;99.90;;;;;;8312081;28;19913;-84
2023/06/30 06:50:20;;;;;;;;;;;17.30;99.90;;;;;;8320081;28;19913;-86
2023/06/30 06:54:21;;;;;;;;;;;17.30;99.90;;;;;;8314730;28;19917;-81
2023/06/30 06:58:22;;;;;;;;;;;17.30;99.90;;;;;;8309849;28;19913;-78
2023/06/30 07:02:22;;;;;;;;;;;17.70;99.90;;;;;;8313095;28;20575;-79
2023/06/30 07:06:23;;;;;;;;;;;17.50;99.90;;;;;;8312924;28;19924;-80
2023/06/30 07:10:24;;;;;;;;;;;17.60;99.90;;;;;;8327256;28;19909;-80
2023/06/30 07:14:24;;;;;;;;;;;17.50;99.90;;;;;;8312902;28;19920;-80
2023/06/30 07:18:25;;;;;;;;;;;17.60;99.90;;;;;;8309633;28;19913;-81
2023/06/30 07:22:26;;;;;;;;;;;17.90;99.90;;;;;;8317942;28;19919;-81
2023/06/30 07:26:26;;;;;;;;;;;18.40;99.90;;;;;;8327486;28;20004;-80
2023/06/30 07:30:27;;;;;;;;;;;18.50;99.90;;;;;;8317347;28;19913;-80
2023/06/30 07:34:29;;;;;;;;;;;18.60;99.90;;;;;;8326949;28;19913;-81
2023/06/30 07:38:29;;;;;;;;;;;18.50;99.90;;;;;;8327246;28;19921;-80
2023/06/30 07:42:30;;;;;;;;;;;18.50;99.90;;;;;;8312547;28;19978;-80
2023/06/30 07:46:30;;;;;;;;;;;18.30;99.90;;;;;;8314263;28;20334;-80
2023/06/30 07:50:31;;;;;;;;;;;18.10;99.90;;;;;;8316417;28;19924;-81
2023/06/30 07:54:33;;;;;;;;;;;18.10;99.90;;;;;;8311076;28;23636;-82
2023/06/30 07:58:33;;;;;;;;;;;18.00;99.90;;;;;;8325129;28;19909;-83
2023/06/30 08:02:34;;;;;;;;;;;18.20;99.90;;;;;;8328471;28;20400;-82
2023/06/30 08:06:34;;;;;;;;;;;17.90;99.90;;;;;;8314450;28;20104;-77
2023/06/30 08:10:35;;;;;;;;;;;18.10;99.90;;;;;;8319064;28;19967;-78
2023/06/30 08:14:35;;;;;;;;;;;18.20;99.90;;;;;;8326513;28;19920;-77
2023/06/30 08:18:36;;;;;;;;;;;18.00;99.90;;;;;;8327926;28;20026;-78
2023/06/30 08:22:36;;;;;;;;;;;18.10;99.90;;;;;;8312500;28;20345;-78
2023/06/30 08:26:37;;;;;;;;;;;17.70;99.90;;;;;;8323971;28;20333;-78
2023/06/30 08:30:37;;;;;;;;;;;17.80;99.90;;;;;;8324197;28;20404;-78
2023/06/30 08:34:38;;;;;;;;;;;17.80;99.90;;;;;;8312133;28;19920;-79
2023/06/30 08:38:38;;;;;;;;;;;18.20;99.90;;;;;;8311318;28;20356;-78
2023/06/30 08:42:40;;;;;;;;;;;18.10;99.90;;;;;;8316025;28;19923;-78
2023/06/30 08:46:41;;;;;;;;;;;18.10;99.90;;;;;;8312323;28;19917;-78
2023/06/30 08:50:42;;;;;;;;;;;18.30;99.90;;;;;;8323578;28;20378;-78
2023/06/30 08:54:43;;;;;;;;;;;18.60;99.90;;;;;;8308825;28;19952;-79
2023/06/30 08:58:44;;;;;;;;;;;18.50;99.90;;;;;;8324686;28;19909;-78
2023/06/30 09:02:44;;;;;;;;;;;18.60;99.90;;;;;;8323856;28;20344;-79
2023/06/30 09:06:47;;;;;;;;;;;19.20;99.90;;;;;;8309816;28;19921;-80
2023/06/30 09:10:48;;;;;;;;;;;18.70;99.90;;;;;;8309773;28;19931;-78
2023/06/30 09:14:49;;;;;;;;;;;18.50;99.90;;;;;;8315605;28;19914;-78
2023/06/30 09:18:50;;;;;;;;;;;18.40;99.90;;;;;;8324732;28;19909;-78
2023/06/30 09:22:50;;;;;;;;;;;18.20;99.90;;;;;;8319449;28;19959;-79
2023/06/30 09:26:52;;;;;;;;;;;18.00;99.90;;;;;;8311489;28;19921;-78
2023/06/30 09:30:58;;;;;;;;;;;17.70;99.90;;;;;;8323777;28;19975;-79
2023/06/30 09:35:04;;;;;;;;;;;17.80;99.90;;;;;;8318793;28;19984;-78
2023/06/30 09:39:08;;;;;;;;;;;17.90;99.90;;;;;;8318430;28;19913;-78
